sensor_id;sensor_type;location;lat;lon;timestamp;pressure;altitude;pressure_sealevel;temperature;humidity
27040;BME280;14589;51.578;7.306;2024-02-23T00:00:11;98232.31;;;6.80;99.23
27040;BME280;14589;51.578;7.306;2024-02-23T00:02:42;98247.09;;;6.69;100.00
27040;BME280;14589;51.578;7.306;2024-02-23T00:05:13;98255.81;;;6.57;100.00
27040;BME280;14589;51.578;7.306;2024-02-23T00:07:43;98263.16;;;6.48;100.00
27040;BME280;14589;51.578;7.306;2024-02-23T00:10:14;98271.31;;;6.55;99.17
27040;BME280;14589;51.578;7.306;2024-02-23T00:12:45;98250.78;;;6.39;98.60
27040;BME280;14589;51.578;7.306;2024-02-23T00:15:17;98297.63;;;6.30;97.85
27040;BME280;14589;51.578;7.306;2024-02-23T00:17:48;98327.66;;;6.19;99.60
27040;BME280;14589;51.578;7.306;2024-02-23T00:20:18;98312.34;;;6.19;98.48
27040;BME280;14589;51.578;7.306;2024-02-23T00:22:49;98323.28;;;6.18;98.89
27040;BME280;14589;51.578;7.306;2024-02-23T00:25:19;98327.63;;;6.04;97.42
27040;BME280;14589;51.578;7.306;2024-02-23T00:27:50;98342.25;;;6.01;98.67
27040;BME280;14589;51.578;7.306;2024-02-23T00:30:20;98325.81;;;5.96;99.17
27040;BME280;14589;51.578;7.306;2024-02-23T00:32:51;98357.13;;;5.89;97.92
27040;BME280;14589;51.578;7.306;2024-02-23T00:35:21;98365.28;;;6.04;98.35
27040;BME280;14589;51.578;7.306;2024-02-23T00:37:52;98375.53;;;6.00;98.18
27040;BME280;14589;51.578;7.306;2024-02-23T00:40:22;98380.59;;;6.03;97.22
27040;BME280;14589;51.578;7.306;2024-02-23T00:42:53;98379.63;;;5.96;97.37
27040;BME280;14589;51.578;7.306;2024-02-23T00:45:24;98384.16;;;5.96;96.85
27040;BME280;14589;51.578;7.306;2024-02-23T00:47:54;98414.22;;;5.99;98.29
27040;BME280;14589;51.578;7.306;2024-02-23T00:50:25;98410.03;;;5.97;97.19
27040;BME280;14589;51.578;7.306;2024-02-23T00:52:59;98412.72;;;5.97;97.84
27040;BME280;14589;51.578;7.306;2024-02-23T00:55:29;98413.56;;;5.97;96.63
27040;BME280;14589;51.578;7.306;2024-02-23T00:57:59;98427.53;;;5.93;98.44
27040;BME280;14589;51.578;7.306;2024-02-23T01:00:30;98424.31;;;5.97;97.50
27040;BME280;14589;51.578;7.306;2024-02-23T01:03:00;98416.06;;;5.99;96.31
27040;BME280;14589;51.578;7.306;2024-02-23T01:05:31;98420.56;;;6.06;96.90
27040;BME280;14589;51.578;7.306;2024-02-23T01:08:01;98425.81;;;6.00;96.39
27040;BME280;14589;51.578;7.306;2024-02-23T01:10:32;98430.19;;;6.01;96.27
27040;BME280;14589;51.578;7.306;2024-02-23T01:13:02;98414.41;;;5.98;94.64
27040;BME280;14589;51.578;7.306;2024-02-23T01:15:33;98439.25;;;6.00;94.33
27040;BME280;14589;51.578;7.306;2024-02-23T01:18:04;98425.66;;;6.01;93.71
27040;BME280;14589;51.578;7.306;2024-02-23T01:20:37;98438.78;;;5.96;92.94
27040;BME280;14589;51.578;7.306;2024-02-23T01:23:07;98441.16;;;5.91;93.59
27040;BME280;14589;51.578;7.306;2024-02-23T01:25:38;98446.31;;;6.01;92.72
27040;BME280;14589;51.578;7.306;2024-02-23T01:28:09;98441.31;;;5.98;91.18
27040;BME280;14589;51.578;7.306;2024-02-23T01:30:39;98432.59;;;5.88;90.91
27040;BME280;14589;51.578;7.306;2024-02-23T01:33:10;98437.47;;;5.84;91.04
27040;BME280;14589;51.578;7.306;2024-02-23T01:35:40;98465.38;;;5.91;91.19
27040;BME280;14589;51.578;7.306;2024-02-23T01:38:10;98462.00;;;5.89;92.05
27040;BME280;14589;51.578;7.306;2024-02-23T01:40:41;98463.34;;;5.85;91.52
27040;BME280;14589;51.578;7.306;2024-02-23T01:43:11;98455.78;;;5.81;92.74
27040;BME280;14589;51.578;7.306;2024-02-23T01:45:41;98465.38;;;5.83;91.54
27040;BME280;14589;51.578;7.306;2024-02-23T01:48:12;98458.31;;;5.82;91.64
27040;BME280;14589;51.578;7.306;2024-02-23T01:50:43;98465.06;;;5.78;91.28
27040;BME280;14589;51.578;7.306;2024-02-23T01:53:15;98472.13;;;5.79;91.40
27040;BME280;14589;51.578;7.306;2024-02-23T01:55:47;98477.66;;;5.78;91.60
27040;BME280;14589;51.578;7.306;2024-02-23T01:58:17;98480.53;;;5.76;91.66
27040;BME280;14589;51.578;7.306;2024-02-23T02:00:48;98463.69;;;5.82;91.51
27040;BME280;14589;51.578;7.306;2024-02-23T02:03:19;98478.66;;;5.85;90.04
27040;BME280;14589;51.578;7.306;2024-02-23T02:05:49;98464.03;;;5.87;90.62
27040;BME280;14589;51.578;7.306;2024-02-23T02:08:21;98478.97;;;5.82;91.61
27040;BME280;14589;51.578;7.306;2024-02-23T02:10:51;98469.06;;;5.82;89.69
27040;BME280;14589;51.578;7.306;2024-02-23T02:13:22;98465.06;;;5.78;90.20
27040;BME280;14589;51.578;7.306;2024-02-23T02:15:52;98479.34;;;5.79;90.32
27040;BME280;14589;51.578;7.306;2024-02-23T02:18:23;98481.69;;;5.82;89.65
27040;BME280;14589;51.578;7.306;2024-02-23T02:20:57;98456.84;;;5.72;89.69
27040;BME280;14589;51.578;7.306;2024-02-23T02:23:27;98470.91;;;5.82;90.05
27040;BME280;14589;51.578;7.306;2024-02-23T02:25:58;98483.88;;;5.78;89.65
27040;BME280;14589;51.578;7.306;2024-02-23T02:28:29;98485.38;;;5.81;90.34
27040;BME280;14589;51.578;7.306;2024-02-23T02:30:59;98478.38;;;5.72;89.50
27040;BME280;14589;51.578;7.306;2024-02-23T02:33:30;98501.53;;;5.89;89.41
27040;BME280;14589;51.578;7.306;2024-02-23T02:36:00;98497.66;;;5.83;88.90
27040;BME280;14589;51.578;7.306;2024-02-23T02:38:30;98485.56;;;5.79;89.71
27040;BME280;14589;51.578;7.306;2024-02-23T02:41:03;98499.84;;;5.80;89.37
27040;BME280;14589;51.578;7.306;2024-02-23T02:46:19;98517.00;;;5.79;88.18
27040;BME280;14589;51.578;7.306;2024-02-23T02:48:50;98520.19;;;5.74;88.07
27040;BME280;14589;51.578;7.306;2024-02-23T02:51:20;98516.31;;;5.77;87.63
27040;BME280;14589;51.578;7.306;2024-02-23T02:53:51;98523.22;;;5.79;85.82
27040;BME280;14589;51.578;7.306;2024-02-23T02:56:21;98526.38;;;5.83;86.32
27040;BME280;14589;51.578;7.306;2024-02-23T02:58:51;98540.19;;;5.88;85.60
27040;BME280;14589;51.578;7.306;2024-02-23T03:01:22;98526.91;;;5.86;85.45
27040;BME280;14589;51.578;7.306;2024-02-23T03:03:52;98542.69;;;5.89;86.12
27040;BME280;14589;51.578;7.306;2024-02-23T03:06:22;98541.03;;;5.88;85.90
27040;BME280;14589;51.578;7.306;2024-02-23T03:08:53;98544.72;;;5.79;87.09
27040;BME280;14589;51.578;7.306;2024-02-23T03:11:23;98544.38;;;5.82;87.23
27040;BME280;14589;51.578;7.306;2024-02-23T03:13:54;98550.59;;;5.75;87.01
27040;BME280;14589;51.578;7.306;2024-02-23T03:16:24;98563.34;;;5.81;86.07
27040;BME280;14589;51.578;7.306;2024-02-23T03:18:56;98552.13;;;5.77;87.38
27040;BME280;14589;51.578;7.306;2024-02-23T03:21:26;98572.94;;;5.75;87.17
27040;BME280;14589;51.578;7.306;2024-02-23T03:23:57;98571.09;;;5.76;87.11
27040;BME280;14589;51.578;7.306;2024-02-23T03:26:27;98567.25;;;5.70;86.96
27040;BME280;14589;51.578;7.306;2024-02-23T03:28:58;98568.25;;;5.69;86.76
27040;BME280;14589;51.578;7.306;2024-02-23T03:31:28;98574.84;;;5.66;85.91
27040;BME280;14589;51.578;7.306;2024-02-23T03:33:59;98564.75;;;5.60;86.64
27040;BME280;14589;51.578;7.306;2024-02-23T03:36:29;98585.06;;;5.63;86.92
27040;BME280;14589;51.578;7.306;2024-02-23T03:39:00;98589.44;;;5.64;87.33
27040;BME280;14589;51.578;7.306;2024-02-23T03:41:31;98583.75;;;5.59;86.36
27040;BME280;14589;51.578;7.306;2024-02-23T03:44:01;98589.63;;;5.54;87.04
27040;BME280;14589;51.578;7.306;2024-02-23T03:46:31;98587.63;;;5.48;86.76
27040;BME280;14589;51.578;7.306;2024-02-23T03:49:02;98581.41;;;5.48;87.76
27040;BME280;14589;51.578;7.306;2024-02-23T03:51:32;98591.66;;;5.52;86.98
27040;BME280;14589;51.578;7.306;2024-02-23T03:54:05;98583.25;;;5.47;87.59
27040;BME280;14589;51.578;7.306;2024-02-23T03:56:40;98584.94;;;5.48;87.96
27040;BME280;14589;51.578;7.306;2024-02-23T03:59:11;98583.44;;;5.54;87.26
27040;BME280;14589;51.578;7.306;2024-02-23T04:01:41;98588.44;;;5.57;86.97
27040;BME280;14589;51.578;7.306;2024-02-23T04:04:12;98583.44;;;5.54;87.43
27040;BME280;14589;51.578;7.306;2024-02-23T04:06:42;98601.41;;;5.61;86.44
27040;BME280;14589;51.578;7.306;2024-02-23T04:09:13;98589.44;;;5.64;86.68
27040;BME280;14589;51.578;7.306;2024-02-23T04:11:43;98592.66;;;5.67;86.35
27040;BME280;14589;51.578;7.306;2024-02-23T04:14:13;98592.66;;;5.59;85.83
27040;BME280;14589;51.578;7.306;2024-02-23T04:16:44;98602.03;;;5.63;86.52
27040;BME280;14589;51.578;7.306;2024-02-23T04:19:14;98599.88;;;5.67;85.56
27040;BME280;14589;51.578;7.306;2024-02-23T04:21:45;98601.53;;;5.76;84.80
27040;BME280;14589;51.578;7.306;2024-02-23T04:24:15;98608.09;;;5.74;84.75
27040;BME280;14589;51.578;7.306;2024-02-23T04:26:45;98615.97;;;5.75;84.79
27040;BME280;14589;51.578;7.306;2024-02-23T04:29:16;98618.66;;;5.75;83.61
27040;BME280;14589;51.578;7.306;2024-02-23T04:31:47;98621.53;;;5.74;83.95
27040;BME280;14589;51.578;7.306;2024-02-23T04:34:17;98618.66;;;5.75;84.97
27040;BME280;14589;51.578;7.306;2024-02-23T04:36:47;98622.88;;;5.78;83.21
27040;BME280;14589;51.578;7.306;2024-02-23T04:39:18;98617.81;;;5.83;82.68
27040;BME280;14589;51.578;7.306;2024-02-23T04:41:48;98644.56;;;5.84;82.88
27040;BME280;14589;51.578;7.306;2024-02-23T04:44:19;98640.69;;;5.79;83.67
27040;BME280;14589;51.578;7.306;2024-02-23T04:46:49;98643.53;;;5.77;83.49
27040;BME280;14589;51.578;7.306;2024-02-23T04:49:19;98641.34;;;5.81;82.23
27040;BME280;14589;51.578;7.306;2024-02-23T04:51:50;98631.09;;;5.76;83.21
27040;BME280;14589;51.578;7.306;2024-02-23T04:54:20;98646.91;;;5.79;82.76
27040;BME280;14589;51.578;7.306;2024-02-23T04:56:50;98650.25;;;5.81;82.88
27040;BME280;14589;51.578;7.306;2024-02-23T04:59:21;98651.44;;;5.79;82.45
27040;BME280;14589;51.578;7.306;2024-02-23T05:01:51;98647.56;;;5.81;81.96
27040;BME280;14589;51.578;7.306;2024-02-23T05:04:21;98648.75;;;5.79;82.40
27040;BME280;14589;51.578;7.306;2024-02-23T05:06:52;98654.78;;;5.81;82.08
27040;BME280;14589;51.578;7.306;2024-02-23T05:09:22;98659.00;;;5.83;81.71
27040;BME280;14589;51.578;7.306;2024-02-23T05:11:53;98654.47;;;5.84;81.23
27040;BME280;14589;51.578;7.306;2024-02-23T05:14:23;98661.69;;;5.83;81.79
27040;BME280;14589;51.578;7.306;2024-02-23T05:16:53;98658.69;;;5.86;81.00
27040;BME280;14589;51.578;7.306;2024-02-23T05:19:24;98664.88;;;5.87;80.74
27040;BME280;14589;51.578;7.306;2024-02-23T05:21:54;98647.06;;;5.86;80.39
27040;BME280;14589;51.578;7.306;2024-02-23T05:24:25;98654.47;;;5.84;81.16
27040;BME280;14589;51.578;7.306;2024-02-23T05:26:56;98656.31;;;5.83;79.92
27040;BME280;14589;51.578;7.306;2024-02-23T05:29:28;98658.31;;;5.81;81.07
27040;BME280;14589;51.578;7.306;2024-02-23T05:31:58;98659.16;;;5.82;80.84
27040;BME280;14589;51.578;7.306;2024-02-23T05:34:29;98657.50;;;5.73;82.14
27040;BME280;14589;51.578;7.306;2024-02-23T05:37:00;98656.81;;;5.70;81.90
27040;BME280;14589;51.578;7.306;2024-02-23T05:39:31;98636.00;;;5.73;81.43
27040;BME280;14589;51.578;7.306;2024-02-23T05:42:02;98647.06;;;5.78;81.10
27040;BME280;14589;51.578;7.306;2024-02-23T05:44:33;98637.50;;;5.75;80.84
27040;BME280;14589;51.578;7.306;2024-02-23T05:47:03;98652.63;;;5.76;80.79
27040;BME280;14589;51.578;7.306;2024-02-23T05:49:33;98643.72;;;5.76;80.62
27040;BME280;14589;51.578;7.306;2024-02-23T05:52:05;98640.00;;;5.77;80.71
27040;BME280;14589;51.578;7.306;2024-02-23T05:54:35;98642.72;;;5.77;81.20
27040;BME280;14589;51.578;7.306;2024-02-23T05:57:06;98641.69;;;5.78;81.25
27040;BME280;14589;51.578;7.306;2024-02-23T05:59:36;98655.31;;;5.84;80.30
27040;BME280;14589;51.578;7.306;2024-02-23T06:02:06;98644.38;;;5.78;80.69
27040;BME280;14589;51.578;7.306;2024-02-23T06:04:37;98635.81;;;5.82;80.72
27040;BME280;14589;51.578;7.306;2024-02-23T06:07:07;98647.75;;;5.80;80.61
27040;BME280;14589;51.578;7.306;2024-02-23T06:09:37;98634.81;;;5.75;80.46
27040;BME280;14589;51.578;7.306;2024-02-23T06:12:08;98625.91;;;5.66;80.92
27040;BME280;14589;51.578;7.306;2024-02-23T06:14:39;98618.84;;;5.65;80.68
27040;BME280;14589;51.578;7.306;2024-02-23T06:17:10;98619.03;;;5.56;81.08
27040;BME280;14589;51.578;7.306;2024-02-23T06:19:40;98626.75;;;5.51;81.54
27040;BME280;14589;51.578;7.306;2024-02-23T06:22:12;98638.03;;;5.54;80.79
27040;BME280;14589;51.578;7.306;2024-02-23T06:24:42;98633.13;;;5.50;80.93
27040;BME280;14589;51.578;7.306;2024-02-23T06:27:13;98625.41;;;5.47;81.06
27040;BME280;14589;51.578;7.306;2024-02-23T06:29:43;98632.81;;;5.45;80.80
27040;BME280;14589;51.578;7.306;2024-02-23T06:32:13;98625.25;;;5.40;80.97
27040;BME280;14589;51.578;7.306;2024-02-23T06:34:44;98626.59;;;5.36;81.57
27040;BME280;14589;51.578;7.306;2024-02-23T06:37:15;98633.97;;;5.26;81.30
27040;BME280;14589;51.578;7.306;2024-02-23T06:39:45;98643.22;;;5.32;81.45
27040;BME280;14589;51.578;7.306;2024-02-23T06:42:21;98618.38;;;5.29;80.99
27040;BME280;14589;51.578;7.306;2024-02-23T06:44:51;98636.84;;;5.33;81.13
27040;BME280;14589;51.578;7.306;2024-02-23T06:47:21;98645.56;;;5.35;81.21
27040;BME280;14589;51.578;7.306;2024-02-23T06:49:52;98633.63;;;5.37;80.43
27040;BME280;14589;51.578;7.306;2024-02-23T06:52:22;98638.03;;;5.30;80.83
27040;BME280;14589;51.578;7.306;2024-02-23T06:54:53;98633.13;;;5.34;80.54
27040;BME280;14589;51.578;7.306;2024-02-23T06:57:23;98656.66;;;5.40;79.35
27040;BME280;14589;51.578;7.306;2024-02-23T06:59:55;98641.53;;;5.39;79.22
27040;BME280;14589;51.578;7.306;2024-02-23T07:02:26;98652.94;;;5.33;80.59
27040;BME280;14589;51.578;7.306;2024-02-23T07:04:57;98661.88;;;5.41;79.55
27040;BME280;14589;51.578;7.306;2024-02-23T07:07:28;98652.44;;;5.37;80.19
27040;BME280;14589;51.578;7.306;2024-02-23T07:10:00;98658.00;;;5.44;80.46
27040;BME280;14589;51.578;7.306;2024-02-23T07:12:31;98654.47;;;5.51;79.34
27040;BME280;14589;51.578;7.306;2024-02-23T07:15:01;98652.97;;;5.57;79.03
27040;BME280;14589;51.578;7.306;2024-02-23T07:17:32;98648.25;;;5.59;78.29
27040;BME280;14589;51.578;7.306;2024-02-23T07:20:02;98660.19;;;5.73;78.45
27040;BME280;14589;51.578;7.306;2024-02-23T07:22:35;98643.03;;;5.82;77.75
27040;BME280;14589;51.578;7.306;2024-02-23T07:25:09;98651.63;;;5.93;77.86
27040;BME280;14589;51.578;7.306;2024-02-23T07:27:39;98661.00;;;6.05;76.88
27040;BME280;14589;51.578;7.306;2024-02-23T07:30:12;98641.63;;;6.18;76.82
27040;BME280;14589;51.578;7.306;2024-02-23T07:32:44;98656.91;;;6.34;75.13
27040;BME280;14589;51.578;7.306;2024-02-23T07:35:14;98659.72;;;6.48;73.37
27040;BME280;14589;51.578;7.306;2024-02-23T07:37:45;98657.44;;;6.68;73.33
27040;BME280;14589;51.578;7.306;2024-02-23T07:40:15;98650.50;;;6.82;72.62
27040;BME280;14589;51.578;7.306;2024-02-23T07:42:45;98639.25;;;6.78;72.30
27040;BME280;14589;51.578;7.306;2024-02-23T07:45:16;98656.91;;;6.73;72.54
27040;BME280;14589;51.578;7.306;2024-02-23T07:47:46;98648.22;;;6.63;72.78
27040;BME280;14589;51.578;7.306;2024-02-23T07:50:17;98647.91;;;6.58;72.11
27040;BME280;14589;51.578;7.306;2024-02-23T07:52:49;98655.81;;;6.59;72.79
27040;BME280;14589;51.578;7.306;2024-02-23T07:55:19;98669.94;;;6.61;73.11
27040;BME280;14589;51.578;7.306;2024-02-23T07:57:49;98660.31;;;6.67;73.39
27040;BME280;14589;51.578;7.306;2024-02-23T08:00:20;98660.13;;;6.76;73.30
27040;BME280;14589;51.578;7.306;2024-02-23T08:02:50;98672.88;;;6.82;72.58
27040;BME280;14589;51.578;7.306;2024-02-23T08:05:21;98660.78;;;6.78;72.42
27040;BME280;14589;51.578;7.306;2024-02-23T08:07:51;98678.25;;;6.82;72.93
27040;BME280;14589;51.578;7.306;2024-02-23T08:10:22;98667.34;;;6.76;72.41
27040;BME280;14589;51.578;7.306;2024-02-23T08:12:52;98676.59;;;6.81;73.06
27040;BME280;14589;51.578;7.306;2024-02-23T08:15:22;98672.03;;;6.82;72.80
27040;BME280;14589;51.578;7.306;2024-02-23T08:17:53;98681.50;;;6.78;72.99
27040;BME280;14589;51.578;7.306;2024-02-23T08:20:23;98677.41;;;6.82;73.07
27040;BME280;14589;51.578;7.306;2024-02-23T08:22:54;98683.66;;;6.82;74.08
27040;BME280;14589;51.578;7.306;2024-02-23T08:25:24;98679.56;;;6.95;74.15
27040;BME280;14589;51.578;7.306;2024-02-23T08:27:56;98686.88;;;7.40;71.72
27040;BME280;14589;51.578;7.306;2024-02-23T08:30:26;98680.13;;;7.81;69.55
27040;BME280;14589;51.578;7.306;2024-02-23T08:32:57;98692.50;;;8.13;68.70
27040;BME280;14589;51.578;7.306;2024-02-23T08:35:27;98687.56;;;8.17;68.13
27040;BME280;14589;51.578;7.306;2024-02-23T08:37:57;98678.34;;;8.11;66.91
27040;BME280;14589;51.578;7.306;2024-02-23T08:40:28;98693.00;;;7.94;66.90
27040;BME280;14589;51.578;7.306;2024-02-23T08:42:58;98699.88;;;7.82;68.31
27040;BME280;14589;51.578;7.306;2024-02-23T08:45:28;98707.47;;;7.78;68.00
27040;BME280;14589;51.578;7.306;2024-02-23T08:47:59;98691.53;;;7.68;68.34
27040;BME280;14589;51.578;7.306;2024-02-23T08:50:29;98690.22;;;7.64;68.77
27040;BME280;14589;51.578;7.306;2024-02-23T08:52:59;98679.63;;;7.63;69.17
27040;BME280;14589;51.578;7.306;2024-02-23T08:55:30;98675.53;;;7.67;68.15
27040;BME280;14589;51.578;7.306;2024-02-23T08:58:01;98676.25;;;7.61;68.59
27040;BME280;14589;51.578;7.306;2024-02-23T09:00:32;98678.09;;;7.60;68.60
27040;BME280;14589;51.578;7.306;2024-02-23T09:03:03;98680.75;;;7.68;67.24
27040;BME280;14589;51.578;7.306;2024-02-23T09:05:33;98675.34;;;7.68;68.48
27040;BME280;14589;51.578;7.306;2024-02-23T09:08:05;98675.81;;;7.72;67.50
27040;BME280;14589;51.578;7.306;2024-02-23T09:10:35;98669.69;;;7.78;66.66
27040;BME280;14589;51.578;7.306;2024-02-23T09:13:05;98680.47;;;7.78;66.42
27040;BME280;14589;51.578;7.306;2024-02-23T09:15:36;98681.66;;;7.84;66.92
27040;BME280;14589;51.578;7.306;2024-02-23T09:18:06;98668.56;;;7.72;66.47
27040;BME280;14589;51.578;7.306;2024-02-23T09:20:37;98675.09;;;7.78;67.02
27040;BME280;14589;51.578;7.306;2024-02-23T09:23:07;98688.41;;;7.80;65.59
27040;BME280;14589;51.578;7.306;2024-02-23T09:25:39;98689.06;;;7.82;66.35
27040;BME280;14589;51.578;7.306;2024-02-23T09:28:09;98696.44;;;7.88;66.32
27040;BME280;14589;51.578;7.306;2024-02-23T09:30:41;98676.31;;;7.76;66.03
27040;BME280;14589;51.578;7.306;2024-02-23T09:33:11;98697.84;;;7.84;66.53
27040;BME280;14589;51.578;7.306;2024-02-23T09:35:42;98694.28;;;7.83;66.76
27040;BME280;14589;51.578;7.306;2024-02-23T09:38:12;98691.88;;;7.88;67.03
27040;BME280;14589;51.578;7.306;2024-02-23T09:40:43;98691.34;;;7.93;65.87
27040;BME280;14589;51.578;7.306;2024-02-23T09:43:14;98700.00;;;8.03;65.88
27040;BME280;14589;51.578;7.306;2024-02-23T09:45:45;98703.53;;;8.03;66.84
27040;BME280;14589;51.578;7.306;2024-02-23T09:48:18;98708.69;;;8.13;67.13
27040;BME280;14589;51.578;7.306;2024-02-23T09:50:49;98689.41;;;8.16;65.90
27040;BME280;14589;51.578;7.306;2024-02-23T09:53:20;98705.63;;;8.16;65.13
27040;BME280;14589;51.578;7.306;2024-02-23T09:55:52;98711.13;;;8.23;65.25
27040;BME280;14589;51.578;7.306;2024-02-23T09:58:23;98701.13;;;8.31;65.17
27040;BME280;14589;51.578;7.306;2024-02-23T10:00:55;98714.63;;;8.31;64.00
27040;BME280;14589;51.578;7.306;2024-02-23T10:03:27;98706.34;;;8.33;64.35
27040;BME280;14589;51.578;7.306;2024-02-23T10:05:59;98684.22;;;8.29;62.90
27040;BME280;14589;51.578;7.306;2024-02-23T10:08:31;98687.91;;;8.36;63.57
27040;BME280;14589;51.578;7.306;2024-02-23T10:11:01;98701.41;;;8.36;63.61
27040;BME280;14589;51.578;7.306;2024-02-23T10:13:32;98704.47;;;8.48;63.42
27040;BME280;14589;51.578;7.306;2024-02-23T10:16:03;98701.97;;;8.61;63.01
27040;BME280;14589;51.578;7.306;2024-02-23T10:18:34;98705.88;;;8.59;62.08
27040;BME280;14589;51.578;7.306;2024-02-23T10:21:05;98701.81;;;8.63;61.58
27040;BME280;14589;51.578;7.306;2024-02-23T10:23:35;98719.97;;;8.69;61.04
27040;BME280;14589;51.578;7.306;2024-02-23T10:26:06;98703.19;;;8.73;62.34
27040;BME280;14589;51.578;7.306;2024-02-23T10:28:37;98696.50;;;8.69;61.17
27040;BME280;14589;51.578;7.306;2024-02-23T10:31:10;98711.19;;;8.67;62.25
27040;BME280;14589;51.578;7.306;2024-02-23T10:33:41;98705.78;;;8.67;61.93
27040;BME280;14589;51.578;7.306;2024-02-23T10:36:15;98721.09;;;8.74;61.93
27040;BME280;14589;51.578;7.306;2024-02-23T10:38:47;98705.53;;;8.76;61.35
27040;BME280;14589;51.578;7.306;2024-02-23T10:41:19;98726.19;;;8.84;62.18
27040;BME280;14589;51.578;7.306;2024-02-23T10:43:51;98714.53;;;8.83;60.35
27040;BME280;14589;51.578;7.306;2024-02-23T10:46:23;98721.53;;;8.78;60.81
27040;BME280;14589;51.578;7.306;2024-02-23T10:48:54;98722.38;;;8.78;61.22
27040;BME280;14589;51.578;7.306;2024-02-23T10:51:25;98724.25;;;8.78;60.84
27040;BME280;14589;51.578;7.306;2024-02-23T10:53:56;98718.19;;;8.76;60.24
27040;BME280;14589;51.578;7.306;2024-02-23T10:56:27;98716.31;;;8.91;61.08
27040;BME280;14589;51.578;7.306;2024-02-23T10:58:58;98716.97;;;8.93;60.86
27040;BME280;14589;51.578;7.306;2024-02-23T11:01:29;98721.34;;;8.94;60.39
27040;BME280;14589;51.578;7.306;2024-02-23T11:03:59;98719.69;;;8.93;59.93
27040;BME280;14589;51.578;7.306;2024-02-23T11:06:33;98728.50;;;9.02;60.64
27040;BME280;14589;51.578;7.306;2024-02-23T11:09:05;98720.88;;;9.05;60.21
27040;BME280;14589;51.578;7.306;2024-02-23T11:11:37;98722.44;;;9.14;59.72
27040;BME280;14589;51.578;7.306;2024-02-23T11:14:08;98713.19;;;9.23;60.17
27040;BME280;14589;51.578;7.306;2024-02-23T11:16:41;98712.03;;;9.32;60.06
27040;BME280;14589;51.578;7.306;2024-02-23T11:19:12;98703.38;;;9.58;58.60
27040;BME280;14589;51.578;7.306;2024-02-23T11:21:42;98705.56;;;9.69;57.77
27040;BME280;14589;51.578;7.306;2024-02-23T11:24:15;98710.50;;;9.81;57.77
27040;BME280;14589;51.578;7.306;2024-02-23T11:26:48;98707.78;;;9.81;56.13
27040;BME280;14589;51.578;7.306;2024-02-23T11:29:18;98705.75;;;9.89;56.90
27040;BME280;14589;51.578;7.306;2024-02-23T11:31:51;98699.19;;;9.77;55.51
27040;BME280;14589;51.578;7.306;2024-02-23T11:34:22;98694.31;;;9.66;55.86
27040;BME280;14589;51.578;7.306;2024-02-23T11:36:54;98699.91;;;9.64;56.67
27040;BME280;14589;51.578;7.306;2024-02-23T11:39:26;98697.53;;;9.55;56.39
27040;BME280;14589;51.578;7.306;2024-02-23T11:41:57;98686.63;;;9.48;56.36
27040;BME280;14589;51.578;7.306;2024-02-23T11:44:29;98706.00;;;9.52;56.73
27040;BME280;14589;51.578;7.306;2024-02-23T11:46:59;98699.69;;;9.45;56.32
27040;BME280;14589;51.578;7.306;2024-02-23T11:49:30;98688.59;;;9.40;57.06
27040;BME280;14589;51.578;7.306;2024-02-23T11:52:00;98688.53;;;9.33;57.08
27040;BME280;14589;51.578;7.306;2024-02-23T11:54:31;98697.38;;;9.42;57.04
27040;BME280;14589;51.578;7.306;2024-02-23T11:57:01;98687.31;;;9.36;57.09
27040;BME280;14589;51.578;7.306;2024-02-23T11:59:32;98698.47;;;9.47;57.67
27040;BME280;14589;51.578;7.306;2024-02-23T12:02:02;98689.09;;;9.43;57.28
27040;BME280;14589;51.578;7.306;2024-02-23T12:04:33;98695.34;;;9.44;57.02
27040;BME280;14589;51.578;7.306;2024-02-23T12:07:04;98701.94;;;9.41;58.13
27040;BME280;14589;51.578;7.306;2024-02-23T12:09:34;98711.00;;;9.33;58.15
27040;BME280;14589;51.578;7.306;2024-02-23T12:12:05;98721.75;;;9.27;58.33
27040;BME280;14589;51.578;7.306;2024-02-23T12:14:36;98709.47;;;9.24;59.39
27040;BME280;14589;51.578;7.306;2024-02-23T12:17:08;98708.72;;;9.30;60.03
27040;BME280;14589;51.578;7.306;2024-02-23T12:19:39;98697.34;;;9.20;59.79
27040;BME280;14589;51.578;7.306;2024-02-23T12:22:12;98703.84;;;9.26;60.25
27040;BME280;14589;51.578;7.306;2024-02-23T12:24:42;98684.47;;;9.22;60.19
27040;BME280;14589;51.578;7.306;2024-02-23T12:27:17;98698.25;;;9.27;59.26
27040;BME280;14589;51.578;7.306;2024-02-23T12:29:54;98706.09;;;9.22;60.06
27040;BME280;14589;51.578;7.306;2024-02-23T12:32:25;98715.63;;;9.18;60.12
27040;BME280;14589;51.578;7.306;2024-02-23T12:34:55;98709.97;;;9.13;60.74
27040;BME280;14589;51.578;7.306;2024-02-23T12:37:26;98707.53;;;9.18;60.73
27040;BME280;14589;51.578;7.306;2024-02-23T12:39:56;98732.78;;;9.11;60.27
27040;BME280;14589;51.578;7.306;2024-02-23T12:42:27;98722.56;;;9.06;61.70
27040;BME280;14589;51.578;7.306;2024-02-23T12:44:58;98721.06;;;9.04;61.67
27040;BME280;14589;51.578;7.306;2024-02-23T12:47:28;98725.88;;;9.08;61.96
27040;BME280;14589;51.578;7.306;2024-02-23T12:49:58;98720.19;;;9.18;62.38
27040;BME280;14589;51.578;7.306;2024-02-23T12:52:29;98735.84;;;9.22;61.36
27040;BME280;14589;51.578;7.306;2024-02-23T12:55:00;98724.47;;;9.27;60.60
27040;BME280;14589;51.578;7.306;2024-02-23T12:57:30;98717.25;;;9.34;61.34
27040;BME280;14589;51.578;7.306;2024-02-23T13:00:00;98708.97;;;9.36;59.81
27040;BME280;14589;51.578;7.306;2024-02-23T13:02:31;98711.34;;;9.45;59.80
27040;BME280;14589;51.578;7.306;2024-02-23T13:05:01;98712.75;;;9.56;59.54
27040;BME280;14589;51.578;7.306;2024-02-23T13:07:32;98704.22;;;9.59;58.37
27040;BME280;14589;51.578;7.306;2024-02-23T13:10:02;98698.03;;;9.65;58.49
27040;BME280;14589;51.578;7.306;2024-02-23T13:12:33;98705.56;;;9.69;58.46
27040;BME280;14589;51.578;7.306;2024-02-23T13:15:03;98710.44;;;9.74;58.32
27040;BME280;14589;51.578;7.306;2024-02-23T13:17:34;98706.81;;;9.67;57.14
27040;BME280;14589;51.578;7.306;2024-02-23T13:20:05;98713.97;;;9.74;57.67
27040;BME280;14589;51.578;7.306;2024-02-23T13:22:35;98710.28;;;9.82;57.71
27040;BME280;14589;51.578;7.306;2024-02-23T13:25:06;98715.75;;;9.89;57.51
27040;BME280;14589;51.578;7.306;2024-02-23T13:27:37;98714.34;;;9.93;57.67
27040;BME280;14589;51.578;7.306;2024-02-23T13:30:07;98728.50;;;9.95;60.33